Flight Track Log - Related Links

Times and Time Zones

All times are in EDT time to prevent confusion due to time zone crossing. See the DAL1981 flight status page for this flight to view local times or setup timezone preferences in your user account.


Time Position Orientation Groundspeed Altitude Reporting Facility
EDT Latitude Longitude Course Direction KTS MPH feet Rate Location/Type
Fri 06:07:19 AM 42.7714 -73.8061 180° South 163 188 1,700  Level Boston Center
Fri 06:08:31 AM 42.8272 -73.8469 332° Northwest 215 247 4,000 2,279 Climbing Boston Center
Fri 06:09:28 AM 42.8619 -73.9131 306° West 247 284 6,600 2,667 Climbing Boston Center
Fri 06:10:00 AM 42.4365 -74.2382 198° South  Level Estimated
Fri 06:10:28 AM 42.8967 -73.9706 310° West 229 264 9,200  Level Boston Center
Fri 06:11:00 AM 42.3581 -74.3466 200° South  Level Estimated
Fri 06:11:28 AM 42.9267 -74.0536 296° West 224 258 11,900  Level Boston Center
Fri 06:12:00 AM 42.2795 -74.4547 180° South  Level Estimated
Fri 06:12:28 AM 42.8825 -74.0836 206° Southwest 180 207 13,800  Level Boston Center
Fri 06:13:28 AM 42.8011 -74.0814 179° South 209 241 14,200 800 Climbing Boston Center
Fri 06:14:28 AM 42.6992 -74.0731 177° South 276 318 15,400 1,900 Climbing Boston Center
Fri 06:15:28 AM 42.5869 -74.0589 175° South 358 412 18,000 2,000 Climbing Boston Center
Fri 06:16:28 AM 42.4722 -74.0558 179° South 395 455 19,400 1,650 Climbing Boston Center
Fri 06:17:28 AM 42.3517 -74.0414 175° South 418 481 21,300 1,600 Climbing Boston Center
Fri 06:18:28 AM 42.2536 -74.0361 178° South 434 499 22,600 1,550 Climbing Boston Center
Fri 06:19:28 AM 42.1222 -74.0439 183° South 458 527 24,400 2,050 Climbing Boston Center
Fri 06:20:28 AM 41.9722 -74.0514 182° South 463 533 26,700 1,867 Climbing Boston Center
Fri 06:22:28 AM 41.7175 -74.0669 183° South 461 531 30,000 1,385 Climbing New York Center
Fri 06:23:30 AM 41.5903 -74.0717 182° South 462 532 30,900 1,400 Climbing New York Center
Fri 06:24:28 AM 41.4817 -74.0803 183° South 457 526 32,800 1,050 Climbing New York Center
Fri 06:25:30 AM 41.3608 -74.0853 182° South 452 520 33,000 500 Climbing New York Center
Fri 06:26:28 AM 41.2356 -74.0928 183° South 452 520 33,800 504 Climbing New York Center
Fri 06:27:29 AM 41.1242 -74.1369 197° South 417 480 34,000 100 Climbing New York Center
Fri 06:28:28 AM 41.0478 -74.2486 228° Southwest 400 460 34,000 -50 Level New York Center
Fri 06:29:29 AM 40.9756 -74.3686 231° Southwest 405 466 33,900  Descending New York Center
Fri 06:30:29 AM 40.9011 -74.4828 229° Southwest 417 480 34,000 50 Climbing New York Center
Fri 06:31:30 AM 40.8286 -74.6050 232° Southwest 422 486 34,000  Level New York Center
Fri 06:32:28 AM 40.7561 -74.7186 230° Southwest 422 486 34,000 -51 Level New York Center
Fri 06:33:28 AM 40.6833 -74.8322 230° Southwest 422 486 33,900  Descending New York Center
Fri 06:34:30 AM 40.6106 -74.9508 231° Southwest 417 480 34,000 49 Climbing New York Center
Fri 06:35:30 AM 40.5378 -75.0611 229° Southwest 417 480 34,000  Level New York Center
Fri 06:36:27 AM 40.4644 -75.1819 231° Southwest 417 480 34,000  Level New York Center
Fri 06:37:28 AM 40.3914 -75.2972 230° Southwest 417 480 34,000  Level New York Center
Fri 06:38:29 AM 40.3203 -75.4125 231° Southwest 417 480 34,000  Level New York Center
Fri 06:39:30 AM 40.2469 -75.5244 229° Southwest 417 480 34,000  Level New York Center
Fri 06:40:27 AM 40.1817 -75.6422 234° Southwest 417 480 34,000  Level New York Center
Fri 06:41:28 AM 40.1247 -75.7631 238° Southwest 405 466 34,000  Level New York Center
Fri 06:42:27 AM 40.0631 -75.8861 237° Southwest 405 466 34,000 -50 Level New York Center
Fri 06:43:29 AM 39.9972 -76.0061 234° Southwest 405 466 33,900  Descending New York Center
Fri 06:44:29 AM 39.9397 -76.1264 238° Southwest 405 466 34,000 50 Climbing New York Center
Fri 06:45:30 AM 39.8717 -76.2456 233° Southwest 407 468 34,000  Level New York Center
Fri 06:46:30 AM 39.8019 -76.3589 231° Southwest 412 474 34,000  Level New York Center
Fri 06:47:31 AM 39.7231 -76.4683 227° Southwest 386 444 34,000  Level Washington Center
Fri 06:48:28 AM 39.6303 -76.5831 224° Southwest 407 468 34,000  Level Washington Center
Fri 06:49:30 AM 39.5483 -76.6897 225° Southwest 412 474 34,000  Level Washington Center
Fri 06:50:29 AM 39.4681 -76.7986 226° Southwest 412 474 34,000  Level Washington Center
Fri 06:51:29 AM 39.3856 -76.9019 224° Southwest 412 474 34,000  Level Washington Center
Fri 06:52:29 AM 39.3053 -77.0131 227° Southwest 412 474 34,000  Level Washington Center
Fri 06:53:30 AM 39.2225 -77.1186 225° Southwest 417 480 34,000  Level Washington Center
Fri 06:54:31 AM 39.1419 -77.2267 226° Southwest 422 486 34,000  Level Washington Center
Fri 06:55:29 AM 39.0592 -77.3319 225° Southwest 422 486 34,000  Level Washington Center
Fri 06:56:30 AM 38.9869 -77.4264 225° Southwest 422 486 34,000  Level Washington Center
Fri 06:57:28 AM 38.8975 -77.5414 225° Southwest 422 486 34,000  Level Washington Center
Fri 06:58:29 AM 38.8231 -77.6406 226° Southwest 422 486 34,000  Level Washington Center
Fri 06:59:29 AM 38.7378 -77.7422 223° Southwest 422 486 34,000  Level Washington Center
Fri 07:00:31 AM 38.6589 -77.8461 226° Southwest 422 486 34,000  Level Washington Center
Fri 07:01:29 AM 38.5922 -77.9531 231° Southwest 411 473 34,000  Level Washington Center
Fri 07:02:30 AM 38.5253 -78.0678 233° Southwest 401 461 34,000  Level Washington Center
Fri 07:03:28 AM 38.4581 -78.1822 233° Southwest 401 461 34,000  Level Washington Center
Fri 07:04:30 AM 38.3911 -78.2936 233° Southwest 406 467 34,000  Level Washington Center
Fri 07:05:31 AM 38.3217 -78.4103 233° Southwest 406 467 34,000  Level Washington Center
Fri 07:06:30 AM 38.2542 -78.5242 233° Southwest 406 467 34,000  Level Washington Center
Fri 07:07:29 AM 38.1822 -78.6508 234° Southwest 406 467 34,000  Level Washington Center
Fri 07:08:30 AM 38.1147 -78.7642 233° Southwest 406 467 34,000  Level Washington Center
Fri 07:09:30 AM 38.0450 -78.8772 232° Southwest 406 467 34,000  Level Washington Center
Fri 07:10:31 AM 37.9769 -78.9900 233° Southwest 406 467 34,000  Level Washington Center
Fri 07:11:30 AM 37.9136 -79.0925 232° Southwest 406 467 34,000  Level Washington Center
Fri 07:12:28 AM 37.8397 -79.1969 228° Southwest 406 467 34,000  Level Washington Center
Fri 07:13:29 AM 37.7633 -79.3036 228° Southwest 411 473 34,000  Level Washington Center
Fri 07:14:30 AM 37.6764 -79.4200 227° Southwest 417 480 34,000  Level Washington Center
Fri 07:15:31 AM 37.6064 -79.5161 227° Southwest 417 480 34,000  Level Washington Center
Fri 07:16:31 AM 37.5211 -79.6347 228° Southwest 417 480 34,000  Level Washington Center
Fri 07:17:31 AM 37.4489 -79.7303 226° Southwest 417 480 34,000  Level Washington Center
Fri 07:18:29 AM 37.3722 -79.8411 229° Southwest 430 495 34,000  Level Washington Center
Fri 07:19:30 AM 37.2933 -79.9464 227° Southwest 425 489 34,000  Level Washington Center
Fri 07:20:30 AM 37.2075 -80.0617 227° Southwest 425 489 34,000  Level Washington Center
Fri 07:21:41 AM 37.1133 -80.1869 227° Southwest 413 475 34,000  Level Atlanta Center
Fri 07:22:41 AM 37.0353 -80.2894 226° Southwest 408 470 34,000  Level Atlanta Center
Fri 07:23:41 AM 36.9672 -80.3836 228° Southwest 408 470 34,000  Level Atlanta Center
Fri 07:24:41 AM 36.8931 -80.4831 227° Southwest 408 470 34,000  Level Atlanta Center
Fri 07:25:41 AM 36.8128 -80.5878 226° Southwest 408 470 34,000  Level Atlanta Center
Fri 07:26:41 AM 36.7322 -80.6975 228° Southwest 398 458 34,000  Level Atlanta Center
Fri 07:27:41 AM 36.6536 -80.7992 226° Southwest 398 458 34,000  Level Atlanta Center
Fri 07:28:41 AM 36.5792 -80.9003 228° Southwest 403 464 34,000  Level Atlanta Center
Fri 07:29:41 AM 36.5003 -81.0017 226° Southwest 403 464 34,000  Level Atlanta Center
Fri 07:30:41 AM 36.4256 -81.1025 227° Southwest 409 471 34,000  Level Atlanta Center
Fri 07:31:41 AM 36.3469 -81.2083 227° Southwest 409 471 34,000  Level Atlanta Center
Fri 07:32:41 AM 36.2781 -81.2983 226° Southwest 409 471 34,000  Level Atlanta Center
Fri 07:33:41 AM 36.2008 -81.3989 226° Southwest 404 465 34,000  Level Atlanta Center
Fri 07:34:41 AM 36.1239 -81.5017 227° Southwest 404 465 34,000  Level Atlanta Center
Fri 07:35:41 AM 36.0467 -81.6017 226° Southwest 399 459 34,000  Level Atlanta Center
Fri 07:36:41 AM 35.9672 -81.7014 225° Southwest 409 471 34,000  Level Atlanta Center
Fri 07:37:41 AM 35.8919 -81.8036 228° Southwest 400 460 34,000  Level Atlanta Center
Fri 07:38:41 AM 35.8164 -81.8978 225° Southwest 400 460 34,000  Level Atlanta Center
Fri 07:39:41 AM 35.7367 -81.9972 225° Southwest 408 470 34,000  Level Atlanta Center
Fri 07:40:41 AM 35.6611 -82.0961 227° Southwest 408 470 34,000  Level Atlanta Center
Fri 07:41:41 AM 35.5814 -82.1978 226° Southwest 408 470 34,000 -150 Level Atlanta Center
Fri 07:42:41 AM 35.5036 -82.2939 225° Southwest 408 470 33,700 -800 Descending Atlanta Center
Fri 07:43:41 AM 35.4111 -82.4003 223° Southwest 413 475 32,400 -1,250 Descending Atlanta Center
Fri 07:44:41 AM 35.3267 -82.4936 222° Southwest 418 481 31,200 -1,050 Descending Atlanta Center
Fri 07:45:41 AM 35.2567 -82.5711 222° Southwest 423 487 30,300 -1,000 Descending Atlanta Center
Fri 07:46:41 AM 35.1600 -82.6769 222° Southwest 423 487 29,200 -650 Descending Atlanta Center
Fri 07:47:41 AM 35.0733 -82.7697 221° Southwest 423 487 29,000 -100 Descending Atlanta Center
Fri 07:48:41 AM 34.9886 -82.8650 223° Southwest 418 481 29,000 -600 Level Atlanta Center
Fri 07:49:41 AM 34.9039 -82.9572 222° Southwest 418 481 27,800 -1,100 Descending Atlanta Center
Fri 07:50:41 AM 34.8192 -83.0469 221° Southwest 411 473 26,800 -1,050 Descending Atlanta Center
Fri 07:51:41 AM 34.7303 -83.1492 223° Southwest 406 467 25,700 -1,000 Descending Atlanta Center
Fri 07:52:41 AM 34.6472 -83.2408 222° Southwest 406 467 24,800 -850 Descending Atlanta Center
Fri 07:53:41 AM 34.5664 -83.3300 222° Southwest 401 461 24,000 -400 Descending Atlanta Center
Fri 07:54:41 AM 34.4836 -83.4164 221° Southwest 401 461 24,000 -850 Level Atlanta Center
Fri 07:55:41 AM 34.4025 -83.5050 222° Southwest 391 450 22,300 -1,300 Descending Atlanta Center
Fri 07:56:41 AM 34.3256 -83.5886 222° Southwest 381 438 21,400 -1,650 Descending Atlanta Center
Fri 07:57:41 AM 34.2486 -83.6719 222° Southwest 381 438 19,000 -2,500 Descending Atlanta Center
Fri 07:58:41 AM 34.1758 -83.7525 222° Southwest 371 427 16,400 -2,450 Descending Atlanta Center
Fri 07:59:41 AM 34.1008 -83.8281 220° Southwest 357 411 14,100 -1,309 Descending Atlanta Center
Fri 08:00:31 AM 34.0333 -83.9000 221° Southwest 353 406 14,000 -927 Descending Atlanta TRACON
Fri 08:01:31 AM 33.9667 -83.9667 220° Southwest 342 394 12,400 -1,000 Descending Atlanta TRACON
Fri 08:02:31 AM 33.9000 -84.0500 226° Southwest 336 387 12,000 -200 Descending Atlanta TRACON
Fri 08:03:31 AM 33.8333 -84.1167 220° Southwest 331 381 12,000  Level Atlanta TRACON
Fri 08:04:25 AM 33.7500 -84.1667 207° Southwest 299 344 12,000  Level Atlanta TRACON
Fri 08:05:25 AM 33.7333 -84.2333 253° West 277 319 12,000 -50 Level Atlanta TRACON
Fri 08:06:25 AM 33.7333 -84.3333 270° West 273 314 11,900 -895 Descending Atlanta TRACON
Fri 08:07:19 AM 33.7333 -84.4167 270° West 277 319 10,300 -1,842 Descending Atlanta TRACON
Fri 08:08:19 AM 33.7333 -84.5000 270° West 267 307 8,400 -2,053 Descending Atlanta TRACON
Fri 08:09:13 AM 33.7333 -84.5833 270° West 268 308 6,400 -1,684 Descending Atlanta TRACON
Fri 08:10:13 AM 33.7333 -84.6667 270° West 253 291 5,200 -800 Descending Atlanta TRACON
Fri 08:11:13 AM 33.7000 -84.7167 231° Southwest 219 252 4,800 -421 Descending Atlanta TRACON
Fri 08:12:07 AM 33.6667 -84.6833 140° Southeast 196 226 4,400 -526 Descending Atlanta TRACON
Fri 08:13:07 AM 33.6500 -84.6333 112° Southeast 177 204 3,800 -600 Descending Atlanta TRACON

Login

Don't have an account? Register now (free) for customized features, flight alerts, and more!